Time;durP1;ratioP1;P1;durP2;ratioP2;P2;SDS_P1;SDS_P2;PMS_P1;PMS_P2;Temp;Humidity;BMP_temperature;BMP_pressure;BME280_temperature;BME280_humidity;BME280_pressure;Samples;Min_cycle;Max_cycle;Signal;HPM_P1;HPM_P2
2020/12/02 00:02:12;;;;;;;37.65;7.85;;;24.10;99.90;;;;;;4974891;28;20554;-61
2020/12/02 00:04:40;;;;;;;26.73;6.15;;;23.90;99.90;;;;;;5002146;28;20029;-61
2020/12/02 00:07:09;;;;;;;30.40;7.25;;;23.80;99.90;;;;;;5013672;28;20042;-61
2020/12/02 00:09:37;;;;;;;32.72;7.55;;;23.60;99.90;;;;;;5013503;28;20379;-61
2020/12/02 00:12:05;;;;;;;30.08;7.15;;;23.30;99.90;;;;;;5013591;28;20038;-61
2020/12/02 00:14:33;;;;;;;35.83;7.72;;;23.20;99.90;;;;;;5013772;28;20088;-61
2020/12/02 00:17:01;;;;;;;36.47;6.70;;;23.30;99.90;;;;;;5029126;28;20033;-61
2020/12/02 00:19:29;;;;;;;36.70;6.70;;;23.50;99.90;;;;;;5072915;28;20397;-62
2020/12/02 00:22:07;;;;;;;34.80;6.72;;;23.50;99.90;;;;;;5072977;28;20178;-62
2020/12/02 00:24:35;;;;;;;32.33;6.53;;;23.40;99.90;;;;;;5110727;28;20036;-61
2020/12/02 00:27:21;;;;;;;30.88;6.43;;;23.30;99.90;;;;;;5115738;28;20020;-62
2020/12/02 00:29:49;;;;;;;31.70;6.82;;;23.20;99.90;;;;;;5115969;28;20027;-61
2020/12/02 00:32:27;;;;;;;34.60;7.45;;;23.20;99.90;;;;;;5115917;28;20430;-62
2020/12/02 00:34:55;;;;;;;27.10;6.32;;;23.40;99.90;;;;;;5116080;28;20061;-61
2020/12/02 00:37:25;;;;;;;31.95;7.60;;;23.30;99.90;;;;;;5115291;28;20025;-61
2020/12/02 00:39:53;;;;;;;28.67;6.30;;;23.50;99.90;;;;;;5115556;28;20479;-62
2020/12/02 00:42:22;;;;;;;33.30;5.97;;;23.80;99.90;;;;;;5115283;28;20020;-60
2020/12/02 00:44:50;;;;;;;33.97;6.68;;;24.20;99.90;;;;;;5115702;28;20020;-60
2020/12/02 00:47:23;;;;;;;30.88;6.75;;;24.30;99.90;;;;;;5115304;28;20032;-61
2020/12/02 00:49:55;;;;;;;35.10;7.68;;;24.20;99.90;;;;;;5115445;28;20080;-62
2020/12/02 00:52:24;;;;;;;33.03;7.07;;;23.90;99.90;;;;;;5115456;28;20051;-60
2020/12/02 00:54:52;;;;;;;34.00;7.90;;;23.90;99.90;;;;;;5115298;28;20027;-61
2020/12/02 00:57:27;;;;;;;29.23;6.47;;;23.90;99.90;;;;;;5096722;28;20039;-60
2020/12/02 00:59:58;;;;;;;37.58;6.78;;;23.80;99.90;;;;;;5115400;28;20046;-62
2020/12/02 01:02:49;;;;;;;30.65;6.30;;;24.00;99.90;;;;;;5115227;28;20459;-61
2020/12/02 01:05:17;;;;;;;28.20;7.15;;;24.40;99.90;;;;;;5072634;28;20337;-62
2020/12/02 01:07:46;;;;;;;25.80;5.70;;;24.50;99.90;;;;;;5072196;28;20423;-62
2020/12/02 01:10:15;;;;;;;31.17;7.47;;;24.20;99.90;;;;;;5072009;28;20048;-60
2020/12/02 01:12:48;;;;;;;27.10;6.45;;;23.60;99.90;;;;;;5072083;28;20452;-63
2020/12/02 01:15:20;;;;;;;27.42;5.82;;;23.30;99.90;;;;;;5071900;28;20040;-60
2020/12/02 01:18:13;;;;;;;28.83;6.45;;;23.20;99.90;;;;;;5071686;28;20036;-63
2020/12/02 01:20:41;;;;;;;31.75;6.22;;;23.10;99.90;;;;;;5071913;28;20025;-62
2020/12/02 01:23:14;;;;;;;31.02;5.25;;;23.10;99.90;;;;;;5072494;28;20103;-63
2020/12/02 01:25:44;;;;;;;39.50;7.57;;;23.00;99.90;;;;;;5072398;28;20037;-63
2020/12/02 01:28:20;;;;;;;28.58;6.88;;;23.00;99.90;;;;;;5071844;28;20029;-63
2020/12/02 01:30:49;;;;;;;28.55;5.68;;;22.90;99.90;;;;;;5071776;28;20405;-61
2020/12/02 01:33:18;;;;;;;29.15;5.78;;;22.70;99.90;;;;;;5038794;28;20044;-62
2020/12/02 01:35:48;;;;;;;37.00;7.90;;;22.60;99.90;;;;;;5044918;28;20048;-63
2020/12/02 01:38:20;;;;;;;;;;;22.60;99.90;;;;;;5071872;28;20366;-62
2020/12/02 01:40:48;;;;;;;32.95;7.05;;;22.70;99.90;;;;;;5071812;28;19908;-62
2020/12/02 01:43:16;;;;;;;34.95;6.63;;;22.70;99.90;;;;;;5071351;28;20115;-61
2020/12/02 01:45:51;;;;;;;33.08;6.43;;;22.70;99.90;;;;;;5038137;28;20024;-61
2020/12/02 01:48:36;;;;;;;27.77;6.07;;;22.70;99.90;;;;;;5071542;28;20492;-60
2020/12/02 01:51:19;;;;;;;32.17;5.97;;;22.70;99.90;;;;;;5021511;28;20090;-60
2020/12/02 01:54:09;;;;;;;28.42;6.32;;;22.70;99.90;;;;;;5071146;28;20191;-61
2020/12/02 01:57:05;;;;;;;31.33;6.10;;;22.80;99.90;;;;;;5084509;28;20051;-61
2020/12/02 01:59:55;;;;;;;30.80;6.03;;;22.90;99.90;;;;;;5031118;28;20035;-61
2020/12/02 02:02:54;;;;;;;29.13;5.97;;;23.00;99.90;;;;;;5031502;28;20335;-61
2020/12/02 02:05:34;;;;;;;27.20;6.15;;;23.00;99.90;;;;;;5031055;28;20057;-61
2020/12/02 02:08:02;;;;;;;28.20;6.10;;;23.10;99.90;;;;;;5050961;28;20059;-61
2020/12/02 02:10:35;;;;;;;29.85;6.65;;;23.20;99.90;;;;;;5050616;28;20021;-60
2020/12/02 02:13:28;;;;;;;25.42;6.10;;;23.20;99.90;;;;;;5050582;28;20108;-63
2020/12/02 02:16:06;;;;;;;25.58;5.53;;;23.40;99.90;;;;;;5030980;28;20042;-60
2020/12/02 02:18:35;;;;;;;28.23;6.35;;;23.50;99.90;;;;;;5014493;28;20124;-61
2020/12/02 02:21:10;;;;;;;29.42;6.68;;;23.70;99.90;;;;;;5030847;28;20060;-60
2020/12/02 02:23:38;;;;;;;30.25;6.88;;;23.60;99.90;;;;;;5030118;28;20171;-60
2020/12/02 02:26:28;;;;;;;31.60;6.30;;;23.70;99.90;;;;;;5031026;28;20386;-61
2020/12/02 02:28:59;;;;;;;26.70;5.75;;;23.60;99.90;;;;;;5010987;28;20125;-60
2020/12/02 02:31:33;;;;;;;31.15;5.75;;;23.40;99.90;;;;;;5046309;28;20116;-59
2020/12/02 02:34:02;;;;;;;26.70;6.38;;;23.20;99.90;;;;;;5050580;28;20117;-60
2020/12/02 02:36:30;;;;;;;32.15;6.63;;;22.90;99.90;;;;;;5050272;28;20036;-59
2020/12/02 02:39:00;;;;;;;31.50;7.18;;;22.70;99.90;;;;;;5050490;28;20110;-59
2020/12/02 02:41:30;;;;;;;27.90;6.53;;;22.60;99.90;;;;;;5017896;28;20179;-60
2020/12/02 02:43:58;;;;;;;36.72;6.38;;;22.60;99.90;;;;;;5050409;28;20261;-61
2020/12/02 02:46:26;;;;;;;33.08;5.90;;;22.50;99.90;;;;;;5050714;28;20032;-61
2020/12/02 02:48:54;;;;;;;28.27;5.13;;;22.30;99.90;;;;;;5050849;28;20120;-61
2020/12/02 02:51:22;;;;;;;36.85;6.65;;;22.20;99.90;;;;;;5050938;28;20029;-60
2020/12/02 02:53:50;;;;;;;32.33;6.45;;;22.10;99.90;;;;;;5021066;28;20036;-60
2020/12/02 02:56:18;;;;;;;28.52;6.05;;;22.00;99.90;;;;;;5081354;28;20056;-60
2020/12/02 02:58:46;;;;;;;30.85;6.43;;;22.00;99.90;;;;;;5091507;28;20024;-60
2020/12/02 03:01:14;;;;;;;31.30;6.03;;;22.00;99.90;;;;;;5132783;27;20050;-61
2020/12/02 03:03:42;;;;;;;33.03;5.90;;;21.90;99.90;;;;;;5133514;28;20455;-62
2020/12/02 03:06:10;;;;;;;26.95;5.13;;;22.00;99.90;;;;;;5097752;28;20035;-62
2020/12/02 03:08:38;;;;;;;30.42;6.57;;;21.90;99.90;;;;;;5133381;28;20030;-62
2020/12/02 03:11:10;;;;;;;30.85;6.18;;;21.90;99.90;;;;;;5133407;28;20051;-60
2020/12/02 03:13:46;;;;;;;29.38;6.65;;;21.70;99.90;;;;;;5133265;28;20106;-60
2020/12/02 03:16:44;;;;;;;28.30;5.68;;;21.70;99.90;;;;;;5133476;28;20412;-60
2020/12/02 03:19:20;;;;;;;26.45;5.80;;;21.60;99.90;;;;;;5133426;28;20022;-60
2020/12/02 03:21:49;;;;;;;31.13;5.55;;;21.60;99.90;;;;;;5133105;28;20020;-59
2020/12/02 03:24:17;;;;;;;34.78;6.22;;;21.60;99.90;;;;;;5133449;28;20487;-59
2020/12/02 03:26:48;;;;;;;33.55;6.72;;;21.60;99.90;;;;;;5097840;28;20055;-60
2020/12/02 03:29:17;;;;;;;27.08;6.22;;;21.60;99.90;;;;;;5133244;28;20108;-60
2020/12/02 03:31:45;;;;;;;36.92;7.05;;;21.80;99.90;;;;;;5133378;28;20050;-60
2020/12/02 03:34:17;;;;;;;28.38;5.70;;;22.00;99.90;;;;;;5135718;27;20378;-60
2020/12/02 03:36:45;;;;;;;29.02;6.30;;;22.10;99.90;;;;;;5137470;27;20023;-62
2020/12/02 03:39:15;;;;;;;33.05;6.30;;;22.20;99.90;;;;;;5137437;27;20019;-61
2020/12/02 03:41:43;;;;;;;26.08;5.43;;;22.30;99.90;;;;;;5137217;27;20028;-61
2020/12/02 03:44:12;;;;;;;22.70;5.45;;;22.50;99.90;;;;;;5137164;27;20047;-61
2020/12/02 03:46:41;;;;;;;24.35;5.50;;;22.70;99.90;;;;;;5137920;27;20056;-60
2020/12/02 03:49:09;;;;;;;27.10;5.55;;;22.80;99.90;;;;;;5137204;27;20102;-61
2020/12/02 03:51:38;;;;;;;29.33;5.63;;;22.70;99.90;;;;;;5118950;27;20069;-61
2020/12/02 03:54:05;;;;;;;28.73;5.97;;;22.70;99.90;;;;;;5136736;27;20023;-62
2020/12/02 03:56:33;;;;;;;34.33;5.95;;;22.60;99.90;;;;;;5137068;27;20495;-61
2020/12/02 03:59:01;;;;;;;28.23;6.32;;;22.40;99.90;;;;;;5137165;27;20023;-60
2020/12/02 04:01:28;;;;;;;27.60;6.15;;;22.30;99.90;;;;;;5137139;27;20551;-60
2020/12/02 04:03:56;;;;;;;31.08;5.75;;;22.30;99.90;;;;;;5136829;27;20467;-61
2020/12/02 04:06:23;;;;;;;28.73;6.25;;;22.30;99.90;;;;;;5136958;27;20031;-62
2020/12/02 04:08:52;;;;;;;25.08;4.95;;;22.40;99.90;;;;;;5136961;27;20043;-62
2020/12/02 04:11:20;;;;;;;34.50;5.97;;;22.30;99.90;;;;;;5136784;27;20034;-61
2020/12/02 04:13:48;;;;;;;30.67;6.38;;;22.30;99.90;;;;;;5118017;27;20031;-61
2020/12/02 04:16:16;;;;;;;24.67;5.45;;;22.30;99.90;;;;;;5136610;27;20399;-60
2020/12/02 04:18:44;;;;;;;27.30;6.47;;;22.30;99.90;;;;;;5136629;27;20471;-60
2020/12/02 04:21:12;;;;;;;28.10;5.43;;;22.30;99.90;;;;;;5117570;27;20099;-61
2020/12/02 04:23:40;;;;;;;25.80;5.60;;;22.30;99.90;;;;;;5136306;27;20026;-60
2020/12/02 04:26:08;;;;;;;23.50;5.07;;;22.30;99.90;;;;;;5136483;27;20356;-60
2020/12/02 04:28:36;;;;;;;26.10;5.20;;;22.40;99.90;;;;;;5136278;27;20023;-60
2020/12/02 04:31:04;;;;;;;30.15;6.03;;;22.30;99.90;;;;;;5136607;27;20019;-61
2020/12/02 04:33:32;;;;;;;26.42;6.13;;;22.30;99.90;;;;;;5117331;27;20410;-61
2020/12/02 04:35:59;;;;;;;24.50;5.50;;;22.20;99.90;;;;;;5136084;27;20106;-60
2020/12/02 04:38:27;;;;;;;24.55;4.68;;;22.20;99.90;;;;;;5136312;27;20034;-61
2020/12/02 04:40:55;;;;;;;29.50;6.03;;;22.20;99.90;;;;;;5113376;28;20028;-61
2020/12/02 04:43:34;;;;;;;23.90;5.85;;;22.20;99.90;;;;;;5113150;28;20452;-60
2020/12/02 04:46:08;;;;;;;27.88;6.10;;;22.30;99.90;;;;;;5095259;28;20070;-59
2020/12/02 04:48:36;;;;;;;25.48;5.63;;;22.30;99.90;;;;;;5113827;28;20023;-60
2020/12/02 04:51:21;;;;;;;25.13;5.25;;;22.30;99.90;;;;;;5113196;28;20019;-60
2020/12/02 04:53:53;;;;;;;26.50;6.07;;;22.40;99.90;;;;;;5113268;28;20019;-59
2020/12/02 04:56:24;;;;;;;27.95;5.13;;;22.30;99.90;;;;;;5101310;28;20059;-59
2020/12/02 04:58:54;;;;;;;25.50;6.50;;;22.30;99.90;;;;;;5092525;28;20067;-60
2020/12/02 05:01:31;;;;;;;26.48;5.25;;;22.10;99.90;;;;;;5092995;28;20016;-59
2020/12/02 05:04:04;;;;;;;24.52;5.93;;;22.10;99.90;;;;;;5092375;28;20067;-60
2020/12/02 05:06:37;;;;;;;25.67;4.53;;;22.00;99.90;;;;;;5059153;28;20538;-59
2020/12/02 05:09:27;;;;;;;29.88;5.68;;;21.80;99.90;;;;;;5092733;28;20452;-59
2020/12/02 05:12:04;;;;;;;22.02;5.32;;;21.60;99.90;;;;;;5052147;28;20085;-60
2020/12/02 05:14:39;;;;;;;29.55;6.57;;;21.50;99.90;;;;;;5052214;28;20168;-59
2020/12/02 05:17:23;;;;;;;24.42;4.88;;;21.40;99.90;;;;;;5051738;28;20041;-59
2020/12/02 05:20:21;;;;;;;26.90;4.68;;;21.40;99.90;;;;;;5071745;28;20017;-61
2020/12/02 05:22:50;;;;;;;29.27;5.68;;;21.50;99.90;;;;;;4999397;28;20038;-61
2020/12/02 05:25:38;;;;;;;31.13;5.93;;;21.40;99.90;;;;;;4999755;28;20120;-61
2020/12/02 05:28:27;;;;;;;28.92;5.72;;;21.40;99.90;;;;;;4992641;28;20038;-60
2020/12/02 05:31:11;;;;;;;28.42;5.47;;;21.40;99.90;;;;;;4992487;28;20113;-61
2020/12/02 05:33:39;;;;;;;32.17;6.03;;;21.30;99.90;;;;;;4960395;28;20057;-60
2020/12/02 05:36:24;;;;;;;20.90;4.40;;;21.30;99.90;;;;;;4992338;28;20045;-60
2020/12/02 05:39:12;;;;;;;24.40;5.00;;;21.30;99.90;;;;;;4992356;28;20031;-60
2020/12/02 05:41:40;;;;;;;28.52;5.47;;;21.30;99.90;;;;;;4925555;28;20485;-62
2020/12/02 05:44:19;;;;;;;25.90;5.07;;;21.30;99.90;;;;;;5010263;28;20037;-60
2020/12/02 05:46:57;;;;;;;25.08;5.72;;;21.30;99.90;;;;;;5011899;28;20438;-61
2020/12/02 05:49:58;;;;;;;29.48;5.38;;;21.30;99.90;;;;;;5012397;28;20141;-59
2020/12/02 05:52:43;;;;;;;27.48;5.90;;;21.20;99.90;;;;;;4993021;28;20042;-61
2020/12/02 05:55:24;;;;;;;27.20;5.47;;;21.20;99.90;;;;;;5012910;28;20125;-60
2020/12/02 05:58:04;;;;;;;28.63;6.50;;;21.20;99.90;;;;;;5029764;28;20100;-62
2020/12/02 06:00:33;;;;;;;29.08;5.25;;;21.20;99.90;;;;;;5031984;28;20108;-63
2020/12/02 06:03:02;;;;;;;27.10;5.93;;;21.20;99.90;;;;;;5071246;28;20086;-60
2020/12/02 06:05:31;;;;;;;25.73;5.20;;;21.10;99.90;;;;;;5071646;28;20028;-60
2020/12/02 06:08:01;;;;;;;33.60;5.15;;;21.10;99.90;;;;;;5037669;28;20059;-60
2020/12/02 06:10:53;;;;;;;29.77;5.45;;;21.00;99.90;;;;;;5071368;28;20036;-61
2020/12/02 06:13:42;;;;;;;26.38;5.63;;;20.90;99.90;;;;;;5031098;28;20034;-60
2020/12/02 06:16:26;;;;;;;29.38;5.07;;;20.90;99.90;;;;;;4991949;28;20129;-61
2020/12/02 06:18:54;;;;;;;24.02;4.90;;;20.90;99.90;;;;;;4991674;28;20046;-61
2020/12/02 06:21:42;;;;;;;27.77;6.20;;;20.90;99.90;;;;;;4991514;28;20038;-63
2020/12/02 06:24:13;;;;;;;24.35;4.45;;;20.90;99.90;;;;;;5009911;28;20026;-62
2020/12/02 06:26:46;;;;;;;21.83;4.57;;;20.90;99.90;;;;;;5011219;28;20089;-61
2020/12/02 06:29:32;;;;;;;23.80;4.85;;;20.90;99.90;;;;;;4978985;28;20133;-65
2020/12/02 06:32:15;;;;;;;22.60;4.18;;;20.90;99.90;;;;;;5011225;28;20038;-65
2020/12/02 06:34:43;;;;;;;26.13;5.25;;;20.90;99.90;;;;;;5011118;28;20038;-65
2020/12/02 06:37:21;;;;;;;24.92;4.32;;;20.90;99.90;;;;;;5006895;28;20483;-64
2020/12/02 06:39:58;;;;;;;24.90;4.97;;;20.90;99.90;;;;;;5070359;28;20067;-65
2020/12/02 06:42:37;;;;;;;24.05;4.20;;;21.00;99.90;;;;;;5070764;28;20061;-65
2020/12/02 06:45:28;;;;;;;27.48;6.03;;;20.90;99.90;;;;;;5053834;28;20032;-65
2020/12/02 06:48:01;;;;;;;28.25;5.03;;;20.90;99.90;;;;;;5106991;28;20061;-64
2020/12/02 06:50:32;;;;;;;31.80;5.85;;;20.80;99.90;;;;;;5113367;28;20027;-63
2020/12/02 06:53:20;;;;;;;58.78;17.67;;;20.80;99.90;;;;;;5113149;28;20119;-65
2020/12/02 06:55:56;;;;;;;39.80;8.43;;;20.90;99.90;;;;;;5112629;27;20059;-65
2020/12/02 06:58:25;;;;;;;25.63;5.65;;;21.00;99.90;;;;;;5112934;28;20056;-63
2020/12/02 07:00:58;;;;;;;21.98;5.85;;;20.90;99.90;;;;;;5113177;28;20034;-65
2020/12/02 07:03:40;;;;;;;26.73;5.13;;;20.90;99.90;;;;;;5113202;28;20107;-69
2020/12/02 07:06:34;;;;;;;26.90;5.88;;;20.90;99.90;;;;;;5113270;28;20031;-69
2020/12/02 07:09:13;;;;;;;23.75;5.22;;;20.80;99.90;;;;;;5069921;28;20079;-69
2020/12/02 07:11:59;;;;;;;20.20;4.27;;;20.90;99.90;;;;;;5070209;28;20412;-69
2020/12/02 07:14:39;;;;;;;22.75;5.20;;;20.80;99.90;;;;;;5070174;28;20400;-68
2020/12/02 07:17:12;;;;;;;27.83;4.68;;;20.90;99.90;;;;;;5070283;28;20029;-68
2020/12/02 07:19:45;;;;;;;21.23;5.35;;;20.80;99.90;;;;;;5070491;28;20469;-68
2020/12/02 07:22:27;;;;;;;31.10;7.10;;;20.80;99.90;;;;;;5070137;28;20096;-68
2020/12/02 07:25:01;;;;;;;21.75;4.20;;;20.60;99.90;;;;;;5070239;28;20025;-68
2020/12/02 07:27:30;;;;;;;20.08;4.97;;;20.50;99.90;;;;;;5070037;28;20102;-68
2020/12/02 07:30:05;;;;;;;23.95;4.60;;;20.40;99.90;;;;;;5070004;28;20036;-69
2020/12/02 07:32:33;;;;;;;22.23;4.25;;;20.40;99.90;;;;;;5069837;28;20054;-64
2020/12/02 07:35:04;;;;;;;28.30;5.65;;;20.50;99.90;;;;;;5069849;28;20032;-67
2020/12/02 07:37:32;;;;;;;21.20;4.32;;;20.50;99.90;;;;;;5053371;28;20067;-64
2020/12/02 07:40:04;;;;;;;26.92;6.22;;;20.50;99.90;;;;;;5074518;28;20044;-63
2020/12/02 07:42:38;;;;;;;22.75;4.28;;;20.50;99.90;;;;;;5112726;28;20096;-64
2020/12/02 07:45:31;;;;;;;25.65;4.82;;;20.50;99.90;;;;;;5112436;28;20015;-67
2020/12/02 07:48:05;;;;;;;20.73;4.03;;;20.40;99.90;;;;;;5112615;28;20104;-58
2020/12/02 07:50:43;;;;;;;26.70;5.22;;;20.40;99.90;;;;;;5112319;28;20028;-64
2020/12/02 07:53:31;;;;;;;19.45;4.47;;;20.40;99.90;;;;;;5112558;28;20080;-66
2020/12/02 07:56:01;;;;;;;27.88;4.45;;;20.40;99.90;;;;;;5118520;28;20047;-61
2020/12/02 07:58:42;;;;;;;20.67;3.97;;;20.40;99.90;;;;;;5132873;28;20027;-61
2020/12/02 08:01:28;;;;;;;;;;;20.50;99.90;;;;;;5133523;28;20054;-62
2020/12/02 08:03:56;;;;;;;28.90;4.88;;;20.40;99.90;;;;;;5052612;28;20026;-63
2020/12/02 08:06:46;;;;;;;25.38;4.70;;;20.20;99.90;;;;;;5082389;28;20090;-62
2020/12/02 08:09:13;;;;;;;28.00;5.68;;;20.00;99.90;;;;;;5089716;28;20085;-61
2020/12/02 08:12:02;;;;;;;25.50;5.18;;;19.90;99.90;;;;;;5090816;28;20020;-62
2020/12/02 08:14:48;;;;;;;27.45;4.80;;;19.70;99.90;;;;;;5090739;28;20390;-67
2020/12/02 08:17:18;;;;;;;21.20;4.43;;;19.70;99.90;;;;;;5006869;28;20119;-64
2020/12/02 08:19:54;;;;;;;28.77;5.07;;;19.60;99.90;;;;;;5090072;28;20036;-65
2020/12/02 08:22:40;;;;;;;28.70;5.25;;;19.60;99.90;;;;;;5093338;28;20032;-68
2020/12/02 08:25:23;;;;;;;23.55;5.15;;;19.50;99.90;;;;;;5047471;28;20078;-71
2020/12/02 08:27:54;;;;;;;27.45;4.95;;;19.30;99.90;;;;;;5093471;28;20340;-66
2020/12/02 08:30:25;;;;;;;23.20;5.38;;;19.20;99.90;;;;;;5093151;28;20534;-61
2020/12/02 08:33:07;;;;;;;22.83;5.47;;;19.10;99.90;;;;;;5093178;28;20372;-65
2020/12/02 08:35:54;;;;;;;24.70;4.03;;;19.00;99.90;;;;;;5125073;27;20042;-64
2020/12/02 08:38:35;;;;;;;23.10;5.15;;;19.00;99.90;;;;;;5105939;28;20035;-68
2020/12/02 08:41:04;;;;;;;22.23;4.72;;;19.20;99.90;;;;;;5097276;28;20027;-64
2020/12/02 08:43:40;;;;;;;24.42;4.85;;;19.30;99.90;;;;;;5113630;28;20032;-63
2020/12/02 08:46:19;;;;;;;23.85;4.32;;;19.30;99.90;;;;;;5113709;28;20181;-62
2020/12/02 08:48:52;;;;;;;27.15;5.10;;;19.30;99.90;;;;;;5113419;28;20118;-65
2020/12/02 08:51:24;;;;;;;26.95;5.10;;;19.20;99.90;;;;;;5113162;28;20073;-67
2020/12/02 08:53:53;;;;;;;29.50;5.03;;;19.20;99.90;;;;;;5113425;28;20039;-65
2020/12/02 08:56:35;;;;;;;21.85;4.25;;;19.20;99.90;;;;;;5112845;28;20044;-65
2020/12/02 08:59:06;;;;;;;19.77;4.63;;;19.10;99.90;;;;;;5113093;28;20047;-64
2020/12/02 09:01:34;;;;;;;18.13;4.13;;;19.10;99.90;;;;;;5072651;28;20518;-65
2020/12/02 09:04:03;;;;;;;25.80;5.30;;;19.10;99.90;;;;;;5072287;28;20025;-64
2020/12/02 09:06:31;;;;;;;23.83;4.22;;;19.10;99.90;;;;;;5072498;28;20028;-65
2020/12/02 09:09:00;;;;;;;25.27;5.25;;;19.10;99.90;;;;;;5072849;28;20036;-65
2020/12/02 09:11:33;;;;;;;27.42;4.40;;;19.10;99.90;;;;;;5092226;28;20116;-64
2020/12/02 09:14:04;;;;;;;18.38;3.58;;;19.10;99.90;;;;;;5092252;28;20049;-64
2020/12/02 09:16:37;;;;;;;19.52;3.88;;;19.10;99.90;;;;;;5092240;28;20051;-64
2020/12/02 09:19:10;;;;;;;23.63;4.82;;;19.20;99.90;;;;;;5075898;28;20115;-64
2020/12/02 09:21:38;;;;;;;20.58;4.40;;;19.20;99.90;;;;;;5092548;28;20059;-64
2020/12/02 09:24:06;;;;;;;32.45;4.88;;;19.20;99.90;;;;;;5092133;28;20035;-66
2020/12/02 09:26:35;;;;;;;18.63;4.20;;;19.20;99.90;;;;;;5092016;28;20078;-65
2020/12/02 09:29:06;;;;;;;26.27;4.45;;;19.30;99.90;;;;;;5092045;28;20024;-66
2020/12/02 09:31:35;;;;;;;23.02;4.28;;;19.30;99.90;;;;;;5093979;28;20412;-65
2020/12/02 09:34:06;;;;;;;27.02;4.68;;;19.30;99.90;;;;;;5132797;27;20027;-66
2020/12/02 09:36:35;;;;;;;23.60;4.40;;;19.30;99.90;;;;;;5135118;27;20436;-64
2020/12/02 09:39:05;;;;;;;23.20;4.75;;;19.30;99.90;;;;;;5135193;27;20015;-64
2020/12/02 09:41:40;;;;;;;21.60;5.15;;;19.30;99.90;;;;;;5135493;27;20467;-64
2020/12/02 09:44:24;;;;;;;19.77;4.32;;;19.20;99.90;;;;;;5134732;27;20129;-63
2020/12/02 09:46:59;;;;;;;22.08;3.92;;;19.20;99.90;;;;;;5134903;27;20020;-64
2020/12/02 09:49:29;;;;;;;17.35;3.72;;;19.10;99.90;;;;;;5134621;27;20023;-64
2020/12/02 09:52:25;;;;;;;25.98;4.25;;;19.10;99.90;;;;;;5131498;27;20029;-67
2020/12/02 09:54:54;;;;;;;25.77;4.85;;;19.10;99.90;;;;;;5134386;27;20027;-64
2020/12/02 09:57:29;;;;;;;18.13;4.18;;;19.10;99.90;;;;;;5134073;27;20047;-64
2020/12/02 09:59:59;;;;;;;23.35;5.28;;;19.00;99.90;;;;;;5134317;27;20048;-64
2020/12/02 10:02:53;;;;;;;23.88;5.40;;;19.10;99.90;;;;;;5134649;27;20019;-65
2020/12/02 10:05:51;;;;;;;20.55;4.38;;;19.10;99.90;;;;;;5134461;27;20088;-63
2020/12/02 10:08:41;;;;;;;25.15;4.63;;;19.10;99.90;;;;;;5103500;28;20108;-64
2020/12/02 10:11:49;;;;;;;19.02;4.03;;;19.00;99.90;;;;;;5071026;28;20039;-63
2020/12/02 10:14:47;;;;;;;19.08;4.85;;;19.00;99.90;;;;;;5050839;28;20033;-63
2020/12/02 10:17:44;;;;;;;18.63;4.15;;;19.00;99.90;;;;;;5051157;28;20096;-63
2020/12/02 10:20:36;;;;;;;18.40;4.03;;;18.90;99.90;;;;;;5070368;28;20104;-64
2020/12/02 10:23:31;;;;;;;21.63;5.13;;;18.80;99.90;;;;;;5070409;28;20319;-63
2020/12/02 10:26:36;;;;;;;22.75;4.70;;;18.80;99.90;;;;;;5070376;28;20025;-64
2020/12/02 10:29:33;;;;;;;24.13;4.70;;;18.70;99.90;;;;;;5070127;28;20067;-63
2020/12/02 10:32:39;;;;;;;24.02;4.72;;;18.60;99.90;;;;;;5070157;28;20021;-63
2020/12/02 10:35:09;;;;;;;24.60;4.38;;;18.50;99.90;;;;;;5070143;28;20532;-62
2020/12/02 10:37:41;;;;;;;24.08;4.40;;;18.40;99.90;;;;;;5070082;28;20035;-63
2020/12/02 10:40:11;;;;;;;26.00;4.47;;;18.40;99.90;;;;;;5072462;28;20028;-63
2020/12/02 10:42:51;;;;;;;23.27;4.90;;;18.40;99.90;;;;;;5089873;28;20039;-64
2020/12/02 10:45:23;;;;;;;24.38;4.43;;;18.30;99.90;;;;;;5071374;28;20526;-64
2020/12/02 10:48:23;;;;;;;27.02;5.05;;;18.20;99.90;;;;;;5057611;28;20036;-62
2020/12/02 10:50:52;;;;;;;24.25;4.95;;;18.20;99.90;;;;;;5097774;28;20036;-64
2020/12/02 10:53:24;;;;;;;17.88;4.40;;;18.20;99.90;;;;;;5110641;28;20485;-65
2020/12/02 10:55:52;;;;;;;22.45;4.30;;;18.20;99.90;;;;;;5093311;28;20044;-64
2020/12/02 10:58:28;;;;;;;24.80;4.60;;;18.20;99.90;;;;;;5110371;28;20155;-63
2020/12/02 11:01:02;;;;;;;21.85;3.83;;;18.30;99.90;;;;;;5093741;28;20031;-64
2020/12/02 11:03:34;;;;;;;35.92;5.50;;;18.30;99.90;;;;;;5110638;28;20028;-64
2020/12/02 11:06:31;;;;;;;18.17;3.55;;;18.30;99.90;;;;;;5124597;28;20442;-63
2020/12/02 11:09:29;;;;;;;19.02;4.10;;;18.20;99.90;;;;;;5107702;28;20058;-64
2020/12/02 11:12:24;;;;;;;23.10;4.40;;;18.20;99.90;;;;;;5070153;28;20040;-62
2020/12/02 11:15:17;;;;;;;22.95;4.82;;;18.20;99.90;;;;;;5070108;28;20464;-64
2020/12/02 11:18:13;;;;;;;24.00;4.30;;;18.20;99.90;;;;;;5070087;28;20067;-62
2020/12/02 11:21:23;;;;;;;23.55;4.63;;;18.10;99.90;;;;;;5069826;28;20031;-64
2020/12/02 11:24:30;;;;;;;29.80;4.72;;;18.20;99.90;;;;;;5069574;28;20123;-63
2020/12/02 11:26:58;;;;;;;24.77;4.60;;;18.10;99.90;;;;;;5052822;28;20037;-63
2020/12/02 11:29:26;;;;;;;21.77;4.18;;;18.10;99.90;;;;;;5069719;28;20024;-62
2020/12/02 11:32:26;;;;;;;28.13;5.68;;;18.10;99.90;;;;;;5069984;28;20067;-64
2020/12/02 11:35:23;;;;;;;20.53;4.70;;;18.00;99.90;;;;;;5069731;28;20043;-62
2020/12/02 11:38:08;;;;;;;22.65;4.38;;;18.00;99.90;;;;;;5069377;28;20041;-63
2020/12/02 11:40:45;;;;;;;29.98;5.00;;;18.00;99.90;;;;;;5067025;28;20060;-63
2020/12/02 11:43:27;;;;;;;23.40;4.60;;;18.00;99.90;;;;;;5086900;28;20049;-62
2020/12/02 11:45:58;;;;;;;21.20;4.50;;;18.00;99.90;;;;;;5110042;28;20031;-63
2020/12/02 11:48:33;;;;;;;22.33;3.75;;;18.00;99.90;;;;;;5110258;28;20043;-63
2020/12/02 11:51:32;;;;;;;27.98;4.95;;;18.00;99.90;;;;;;5110151;28;20056;-62
2020/12/02 11:54:07;;;;;;;31.80;5.38;;;18.00;99.90;;;;;;5049699;28;20578;-63
2020/12/02 11:56:42;;;;;;;25.63;4.78;;;17.90;99.90;;;;;;5037593;28;20128;-62
2020/12/02 11:59:15;;;;;;;19.25;3.92;;;18.00;99.90;;;;;;5053684;28;20133;-61
2020/12/02 12:01:58;;;;;;;26.15;5.28;;;18.00;99.90;;;;;;5053350;28;20025;-62
2020/12/02 12:04:57;;;;;;;26.42;4.72;;;18.00;99.90;;;;;;5053415;28;20126;-65
2020/12/02 12:07:51;;;;;;;22.55;3.97;;;18.00;99.90;;;;;;4994411;28;20062;-63
2020/12/02 12:10:22;;;;;;;23.55;3.72;;;18.00;99.90;;;;;;5013492;28;20061;-62
2020/12/02 12:13:19;;;;;;;21.92;4.18;;;18.00;99.90;;;;;;5014074;28;20180;-63
2020/12/02 12:15:55;;;;;;;25.95;4.63;;;17.90;99.90;;;;;;5013364;28;20544;-62
2020/12/02 12:18:45;;;;;;;26.50;4.95;;;17.90;99.90;;;;;;4996939;28;20056;-61
2020/12/02 12:21:33;;;;;;;26.43;4.53;;;17.90;99.90;;;;;;5013219;28;20030;-62
2020/12/02 12:24:10;;;;;;;24.83;4.72;;;17.90;99.90;;;;;;5019170;28;20461;-61
2020/12/02 12:26:57;;;;;;;21.40;3.90;;;17.90;99.90;;;;;;5072845;28;20033;-63
2020/12/02 12:29:28;;;;;;;19.98;4.70;;;17.90;99.90;;;;;;5000194;28;20037;-63
2020/12/02 12:32:09;;;;;;;20.30;3.63;;;17.90;99.90;;;;;;5033172;28;20040;-63
2020/12/02 12:35:02;;;;;;;23.15;4.20;;;17.90;99.90;;;;;;5033054;28;20142;-62
2020/12/02 12:37:58;;;;;;;19.88;3.80;;;17.80;99.90;;;;;;5040790;28;20041;-63
2020/12/02 12:40:35;;;;;;;24.00;3.60;;;17.90;99.90;;;;;;5093044;28;20182;-63
2020/12/02 12:43:05;;;;;;;28.27;5.25;;;17.80;99.90;;;;;;5093313;28;20103;-64
2020/12/02 12:45:44;;;;;;;25.88;5.03;;;17.80;99.90;;;;;;5092890;28;20364;-62
2020/12/02 12:48:23;;;;;;;24.20;4.47;;;17.70;99.90;;;;;;5092991;28;20103;-62
2020/12/02 12:50:54;;;;;;;20.95;3.60;;;17.80;99.90;;;;;;5093181;28;20028;-62
2020/12/02 12:53:23;;;;;;;17.42;3.28;;;17.70;99.90;;;;;;5059320;28;20115;-62
2020/12/02 12:55:56;;;;;;;20.10;3.58;;;17.70;99.90;;;;;;5092714;28;20075;-61
2020/12/02 12:58:24;;;;;;;20.45;3.60;;;17.70;99.90;;;;;;5092466;28;20024;-62
2020/12/02 13:00:53;;;;;;;25.58;4.40;;;17.70;99.90;;;;;;5066410;28;20037;-63
2020/12/02 13:03:31;;;;;;;28.15;4.22;;;17.70;99.90;;;;;;5072155;28;20569;-64
2020/12/02 13:06:30;;;;;;;23.80;4.07;;;17.70;99.90;;;;;;5071603;28;20124;-62
2020/12/02 13:09:23;;;;;;;21.30;4.28;;;17.70;99.90;;;;;;5072585;28;20028;-61
2020/12/02 13:12:10;;;;;;;23.05;4.63;;;17.70;99.90;;;;;;5071947;28;20024;-61
2020/12/02 13:15:03;;;;;;;25.58;4.22;;;17.70;99.90;;;;;;5071776;28;20099;-62
2020/12/02 13:17:46;;;;;;;21.77;3.70;;;17.60;99.90;;;;;;5031781;28;20037;-62
2020/12/02 13:20:22;;;;;;;24.35;4.82;;;17.60;99.90;;;;;;5032224;28;20044;-60
2020/12/02 13:23:16;;;;;;;20.95;4.40;;;17.60;99.90;;;;;;5031847;28;20029;-62
2020/12/02 13:26:22;;;;;;;21.77;4.55;;;17.60;99.90;;;;;;5012154;28;20065;-61
2020/12/02 13:29:16;;;;;;;20.33;4.15;;;17.60;99.90;;;;;;4992405;28;20030;-61